Logo AVAMET
Benvolgut visitant, si us plau, ingressa Recuperar contrasenya

Inforatge Alberic Urb. Sant Cristòfol

Dades diàries. Acumulats / Últims 30 dies disponibles

Data Temperatura (°C) Humitat rel. (%) Pressió rel. (hPa) Vent (km/h) Precipitació
Mínima Mitjana Màxima Amplitud
tèrmica
Mínima Mitjana Màxima Mínima Mitjana Màxima Predom. Mitjana Ràfega
màxima
Total
(mm)
Índex-n
Mínima Mitjana Màxima Mínima Mitjana Màxima n
0 a 1
P0 max
mm 5'
Dades mensuals acumulades fins l'últim dia disponible
01/2020 2,6 6,5 10,2 10,3 6,4 15,1 18,6 16,0 35 73 98 1.016 1.028 1.034   3,6 64,4 85,2
Dades anuals acumulades fins l'últim dia disponible
2020 2,6 6,5 10,2 10,3 6,4 15,1 18,6 16,0 35 73 98 1.016 1.028 1.034   3,6 64,4 85,2
Últims 30 dies disponibles
20-01-2020 2,6     4,8     6,4 3,8 97 98 98 1.018 1.020 1.021 NNE 20,9 64,4 48,2 0,48 3,70
19-01-2020 4,8     8,3     14,4 9,6 69 86 97 1.016 1.018 1.020 NE 12,1 57,9 36,4 0,24 1,00
18-01-2020 9,2     13,1     18,2 9,0 51 66 77 1.020 1.028 1.033 SW 2,4 27,4 0,0
17-01-2020 9,9     13,7     16,9 7,0 43 55 67 1.028 1.030 1.032 W 5,3 45,1 0,0
16-01-2020 10,2     13,3     17,9 7,7 54 66 75 1.026 1.028 1.030 WSW 1,8 17,7 0,0
15-01-2020 7,2     11,9     18,6 11,4 41 62 74 1.023 1.026 1.028 SW 2,1 20,9 0,0
14-01-2020 6,9     11,1     17,3 10,4 36 55 69 1.021 1.022 1.024 SW 2,4 20,9 0,0
13-01-2020 4,7     10,3     17,1 12,4 35 54 71 1.022 1.025 1.030 WSW 3,4 22,5 0,0
12-01-2020 5,8     9,3     14,2 8,4 41 62 87 1.029 1.030 1.031 NE 1,3 11,3 0,0
11-01-2020 5,1     10,3     14,6 9,5 50 64 82 1.029 1.030 1.033 W 1,6 12,9 0,0
10-01-2020 7,3     10,9     14,5 7,2 52 71 84 1.023 1.026 1.030 NE 3,5 35,4 0,0
09-01-2020 5,9     9,9     15,3 9,4 63 83 94 1.025 1.028 1.031 W 1,9 9,7 0,2
08-01-2020 7,5     9,7     12,1 4,6 61 81 95 1.028 1.030 1.032 WSW 1,6 12,9 0,2
07-01-2020 4,2     9,9     15,9 11,7 51 78 96 1.029 1.030 1.032 SW 1,6 9,7 0,0
06-01-2020 8,3     10,8     14,8 6,5 61 81 92 1.028 1.030 1.031 W 1,8 14,5 0,0
05-01-2020 7,1     11,2     17,9 10,8 49 69 84 1.027 1.029 1.032 WSW 1,8 19,3 0,0
04-01-2020 6,1     10,1     14,9 8,8 57 75 89 1.032 1.033 1.034 WSW 2,1 17,7 0,0
03-01-2020 6,1     9,4     13,4 7,3 70 82 92 1.030 1.031 1.034 WSW 2,1 16,1 0,0
02-01-2020 4,9     8,4     13,1 8,2 70 85 93 1.030 1.032 1.034 W 1,3 12,9 0,2
01-01-2020 6,1     9,3     13,6 7,5 68 83 93 1.031 1.032 1.034 WSW 1,3 11,3 0,0
31-12-2019 5,7     9,1     13,7 8,0 68 84 91 1.032 1.033 1.035 S 1,3 11,3 0,0
30-12-2019 8,4     10,7     14,7 6,3 63 82 92 1.032 1.033 1.035 W 0,8 9,7 0,0
29-12-2019 7,4     9,8     13,9 6,5 71 87 95 1.030 1.032 1.034 WSW 2,3 12,9 0,2
28-12-2019 4,9     9,8     13,7 8,8 76 89 96 1.029 1.030 1.032 NE 1,6 12,9 0,0
27-12-2019 8,8     12,9     20,2 11,4 52 78 96 1.027 1.029 1.031 WSW 1,0 9,7 0,0
26-12-2019 12,6     17,0     23,3 10,7 40 54 80 1.023 1.025 1.031 N 3,2 29,0 0,0
25-12-2019 12,3     15,9     20,5 8,2 49 62 72 1.023 1.024 1.027 W 1,6 16,1 0,0
24-12-2019 11,7     17,0     23,4 11,7 47 57 68 1.025 1.027 1.029 W 5,1 38,6 0,0
23-12-2019 13,3     16,3     19,5 6,2 43 59 66 1.019 1.025 1.028 W 11,4 48,3 0,0
22-12-2019 15,9     17,7     19,9 4,0 46 54 61 1.007 1.015 1.020 W 19,3 77,2 0,0
Últims 13 mesos disponibles
12/2019 4,9 10,6 16,8 13,5 10,9 17,1 24,3 19,4 52 72 98 1.002 1.019 1.033 W 7,3 88,5 99,6
11/2019 5,7 11,6 20,4 14,9 14,7 18,7 26,4 20,7 48 60 77 999 1.012 1.019 W 8,2 75,6 5,8
10/2019 10,6 16,0 20,3 20,0 15,8 25,1 33,4 22,8 41 69 89 1.008 1.017 1.022 W 3,4 48,3 30,8
09/2019 14,2 19,7 23,3 23,3 20,8 27,9 34,5 20,3 37 74 90 1.011 1.018 1.025 SSE 4,9 46,7 109,4
08/2019 17,3 21,8 25,6 26,4 27,3 32,4 41,0 23,7 41 69 82 1.012 1.017 1.021 SE 5,2 40,7 9,4
07/2019 20,5 22,2 24,6 26,9 28,1 32,6 37,6 17,1 44 66 81 1.007 1.015 1.022 SE 6,0 48,3 2,6
06/2019 12,9 17,7 22,6 23,1 22,1 29,0 38,2 25,3 35 61 81 1.010 1.016 1.023 ESE 5,6 53,7 0,0
05/2019 9,6 14,2 20,1 18,9 17,8 24,7 31,6 22,0 48 65 85 1.006 1.016 1.025 ESE 5,1 50,0 11,4
04/2019 8,3 11,3 14,8 14,9 13,6 19,8 28,8 20,5 38 67 95 1.000 1.014 1.026 SO 7,2 55,6 131,8
03/2019 6,9 10,1 15,6 14,9 12,0 20,6 28,6 21,7 27 56 92 1.012 1.023 1.030 SE 4,6 53,7 50,6
02/2019 4,3 8,1 12,7 12,5 12,8 18,3 26,1 21,8 33 60 83 996 1.025 1.034 S 4,9 69,3 0,2
01/2019 2,0 7,5 12,4 11,5 11,9 16,4 21,4 19,4 38 55 73 1.003 1.019 1.031 SO 6,2 70,9 0,2
12/2018 5,2 9,6 14,1 13,5 13,2 18,4 24,5 19,3 44 65 84 1.009 1.025 1.031 OSO 4,8 63,0 8,6
Tots els anys disponibles
2019 2,0 14,3 25,6 18,4 10,9 23,6 41,0 39,0 27 65 98 996 1.018 1.034 SE 5,7 88,5 451,8
Temperatura (°C)
Humitat relativa (%)
Velocitat del vent i ràfega màxima (km/h)
Direcció del vent (°)
Pressió (hPa)
Precipitació (mm)
Nota sobre les dades: s'avisa a l'usuari de la provisionalitat i no oficialitat d'aquestes dades
Logo AVAMET blanc
Web allotjada a Sollutia
Llicència de Creative CommonsLa web d'AVAMET i els seus continguts estan subjectes a una llicència de
Reconeixement - No Comercial - Compartir igual
Últimes estacions: Xixona - Els Ameradors (Soci), Agres - El Tossal (Soci), Xàbia - Bevenguts (MeteoXàbia), Llíria (Aj. Soci/Inforatge), Orihuela - Lo Capitán, Cox & Guardamar del Segura - horta (Meteorihuela), l'Alcúdia - Carriona & el Real de Gandia (Inforatge), Benicàssim - les Vil·les (Soci),  l'Alfàs del Pi - l'Albir (Soci), - - -